createdAt,value
2023-01-20T00:01:09.550Z,23.20
2023-01-20T00:03:36.618Z,23.23
2023-01-20T00:06:03.574Z,23.40
2023-01-20T00:08:30.125Z,23.63
2023-01-20T00:10:56.708Z,24.30
2023-01-20T00:13:23.345Z,24.30
2023-01-20T00:15:49.863Z,23.45
2023-01-20T00:18:16.382Z,24.52
2023-01-20T00:20:42.935Z,25.65
2023-01-20T00:23:09.464Z,24.50
2023-01-20T00:25:36.630Z,25.27
2023-01-20T00:28:03.630Z,22.17
2023-01-20T00:30:30.469Z,24.50
2023-01-20T00:32:57.049Z,24.08
2023-01-20T00:35:23.614Z,23.70
2023-01-20T00:37:50.181Z,24.55
2023-01-20T00:40:16.925Z,23.55
2023-01-20T00:42:43.456Z,24.92
2023-01-20T00:45:11.030Z,25.73
2023-01-20T00:47:38.049Z,25.00
2023-01-20T00:50:04.989Z,25.20
2023-01-20T00:52:31.524Z,25.67
2023-01-20T00:54:57.991Z,27.05
2023-01-20T00:57:24.546Z,26.83
2023-01-20T00:59:51.045Z,26.95
2023-01-20T01:02:17.671Z,27.83
2023-01-20T01:04:44.557Z,28.15
2023-01-20T01:07:11.075Z,27.70
2023-01-20T01:09:37.628Z,28.85
2023-01-20T01:12:04.134Z,25.98
2023-01-20T01:14:32.291Z,29.13
2023-01-20T01:16:58.811Z,27.95
2023-01-20T01:19:25.424Z,26.88
2023-01-20T01:21:51.995Z,28.08
2023-01-20T01:24:18.572Z,25.63
2023-01-20T01:26:45.163Z,28.50
2023-01-20T01:29:11.745Z,28.63
2023-01-20T01:31:39.004Z,32.83
2023-01-20T01:34:05.587Z,32.03
2023-01-20T01:36:32.259Z,31.98
2023-01-20T01:38:59.303Z,33.90
2023-01-20T01:41:25.966Z,33.35
2023-01-20T01:44:05.531Z,30.55
2023-01-20T01:46:32.302Z,30.88
2023-01-20T01:49:01.325Z,32.22
2023-01-20T01:51:39.009Z,30.35
2023-01-20T01:54:09.795Z,30.30
2023-01-20T01:56:37.324Z,33.35
2023-01-20T01:59:04.558Z,31.98
2023-01-20T02:01:35.503Z,33.55
2023-01-20T02:04:09.139Z,31.67
2023-01-20T02:06:39.494Z,33.10
2023-01-20T02:09:06.200Z,35.42
2023-01-20T02:11:37.261Z,32.22
2023-01-20T02:16:35.078Z,29.50
2023-01-20T02:19:06.525Z,29.55
2023-01-20T02:22:10.367Z,30.77
2023-01-20T02:25:02.875Z,31.38
2023-01-20T02:28:06.926Z,29.05
2023-01-20T02:30:39.116Z,30.35
2023-01-20T02:33:10.890Z,28.55
2023-01-20T02:35:50.052Z,31.42
2023-01-20T02:38:25.662Z,28.92
2023-01-20T02:41:17.754Z,28.05
2023-01-20T02:43:52.004Z,29.17
2023-01-20T02:46:25.831Z,28.42
2023-01-20T02:49:21.117Z,29.45
2023-01-20T02:51:54.405Z,27.67
2023-01-20T02:54:21.549Z,27.50
2023-01-20T02:56:48.758Z,27.27
2023-01-20T02:59:18.305Z,25.23
2023-01-20T03:01:51.473Z,25.67
2023-01-20T03:04:21.657Z,26.27
2023-01-20T03:06:51.132Z,24.88
2023-01-20T03:09:21.388Z,24.55
2023-01-20T03:11:59.035Z,25.53
2023-01-20T03:14:25.524Z,25.20
2023-01-20T03:16:52.281Z,24.27
2023-01-20T03:19:20.547Z,24.40
2023-01-20T03:21:47.524Z,23.52
2023-01-20T03:24:14.094Z,24.42
2023-01-20T03:26:40.694Z,25.23
2023-01-20T03:29:11.384Z,23.50
2023-01-20T03:31:45.025Z,25.05
2023-01-20T03:34:14.453Z,21.77
2023-01-20T03:36:42.851Z,23.00
2023-01-20T03:39:09.542Z,23.25
2023-01-20T03:42:14.224Z,24.85
2023-01-20T03:45:11.073Z,24.02
2023-01-20T03:47:47.435Z,23.10
2023-01-20T03:50:39.111Z,22.60
2023-01-20T03:53:33.661Z,24.60
2023-01-20T03:56:06.319Z,24.73
2023-01-20T03:58:35.286Z,24.35
2023-01-20T04:01:17.952Z,23.50
2023-01-20T04:03:47.460Z,22.98
2023-01-20T04:06:15.094Z,25.30
2023-01-20T04:08:48.426Z,24.73
2023-01-20T04:11:15.021Z,25.33
2023-01-20T04:13:41.550Z,25.20
2023-01-20T04:16:15.870Z,23.75
2023-01-20T04:18:45.395Z,24.67
2023-01-20T04:21:18.050Z,24.10
2023-01-20T04:23:54.505Z,25.30
2023-01-20T04:26:21.041Z,23.95
2023-01-20T04:28:47.561Z,26.00
2023-01-20T04:31:29.250Z,24.83
2023-01-20T04:33:56.810Z,23.33
2023-01-20T04:36:23.386Z,24.98
2023-01-20T04:38:50.065Z,24.67
2023-01-20T04:41:16.529Z,24.70
2023-01-20T04:43:44.947Z,26.02
2023-01-20T04:46:12.733Z,24.25
2023-01-20T04:48:39.370Z,25.50
2023-01-20T04:51:06.943Z,26.08
2023-01-20T04:53:33.865Z,26.85
2023-01-20T04:56:00.531Z,24.92
2023-01-20T04:58:27.069Z,24.95
2023-01-20T05:00:53.722Z,24.90
2023-01-20T05:03:20.223Z,23.40
2023-01-20T05:05:54.179Z,25.45
2023-01-20T05:08:20.848Z,25.70
2023-01-20T05:10:47.465Z,24.98
2023-01-20T05:13:14.099Z,24.02
2023-01-20T05:15:41.141Z,23.08
2023-01-20T05:18:07.785Z,24.20
2023-01-20T05:20:34.283Z,23.50
2023-01-20T05:23:01.556Z,22.95
2023-01-20T05:25:28.620Z,22.63
2023-01-20T05:27:55.120Z,23.67
2023-01-20T05:30:21.678Z,22.15
2023-01-20T05:32:51.892Z,22.88
2023-01-20T05:35:18.528Z,22.43
2023-01-20T05:37:45.082Z,19.90
2023-01-20T05:40:12.621Z,21.58
2023-01-20T05:42:39.414Z,21.20
2023-01-20T05:45:07.639Z,21.55
2023-01-20T05:47:34.090Z,23.42
2023-01-20T05:50:00.661Z,22.13
2023-01-20T05:52:27.232Z,22.92
2023-01-20T05:54:53.779Z,23.80
2023-01-20T05:57:20.308Z,20.25
2023-01-20T05:59:51.292Z,23.30
2023-01-20T06:02:19.408Z,20.73
2023-01-20T06:04:46.736Z,22.63
2023-01-20T06:07:13.988Z,21.55
2023-01-20T06:09:40.840Z,22.10
2023-01-20T06:12:08.166Z,23.10
2023-01-20T06:14:34.664Z,21.83
2023-01-20T06:17:01.132Z,22.13
2023-01-20T06:19:27.696Z,21.95
2023-01-20T06:21:54.187Z,22.17
2023-01-20T06:24:20.669Z,22.88
2023-01-20T06:26:50.319Z,22.90
2023-01-20T06:29:16.866Z,21.95
2023-01-20T06:31:45.046Z,22.40
2023-01-20T06:34:12.176Z,21.65
2023-01-20T06:36:38.842Z,23.38
2023-01-20T06:39:05.416Z,23.38
2023-01-20T06:41:32.082Z,22.35
2023-01-20T06:43:58.583Z,22.92
2023-01-20T06:46:25.173Z,24.52
2023-01-20T06:48:52.123Z,23.83
2023-01-20T06:51:19.983Z,23.50
2023-01-20T06:53:47.459Z,22.67
2023-01-20T06:56:15.216Z,22.83
2023-01-20T06:58:41.938Z,22.58
2023-01-20T07:01:12.119Z,24.05
2023-01-20T07:03:38.713Z,18.53
2023-01-20T07:06:34.186Z,23.40
2023-01-20T07:09:01.453Z,22.05
2023-01-20T07:11:28.888Z,24.38
2023-01-20T07:13:55.422Z,22.95
2023-01-20T07:16:21.974Z,22.40
2023-01-20T07:18:50.176Z,22.42
2023-01-20T07:21:17.473Z,22.40
2023-01-20T07:23:45.027Z,21.60
2023-01-20T07:26:14.291Z,21.98
2023-01-20T07:28:41.001Z,22.35
2023-01-20T07:31:13.286Z,22.40
2023-01-20T07:33:40.062Z,23.27
2023-01-20T07:36:07.803Z,23.90
2023-01-20T07:38:34.555Z,23.40
2023-01-20T07:41:04.950Z,23.42
2023-01-20T07:43:32.030Z,21.73
2023-01-20T07:46:00.460Z,23.05
2023-01-20T07:48:27.815Z,22.35
2023-01-20T07:51:02.608Z,21.90
2023-01-20T07:53:30.071Z,22.30
2023-01-20T07:55:56.911Z,21.88
2023-01-20T07:58:23.409Z,20.70
2023-01-20T08:00:50.007Z,21.58
2023-01-20T08:03:16.717Z,24.17
2023-01-20T08:05:43.482Z,22.27
2023-01-20T08:08:10.023Z,21.55
2023-01-20T08:10:37.097Z,21.80
2023-01-20T08:13:03.803Z,22.00
2023-01-20T08:15:30.347Z,21.42
2023-01-20T08:17:59.278Z,21.23
2023-01-20T08:20:27.125Z,21.10
2023-01-20T08:22:53.746Z,18.77
2023-01-20T08:25:20.307Z,19.08
2023-01-20T08:27:48.675Z,20.45
2023-01-20T08:30:15.404Z,18.95
2023-01-20T08:32:41.958Z,21.20
2023-01-20T08:35:08.718Z,21.70
2023-01-20T08:37:38.051Z,20.80
2023-01-20T08:40:09.668Z,18.48
2023-01-20T08:42:37.498Z,20.13
2023-01-20T08:45:06.692Z,19.05
2023-01-20T08:47:37.468Z,19.33
2023-01-20T08:50:05.865Z,19.60
2023-01-20T08:52:32.809Z,20.02
2023-01-20T08:54:59.370Z,19.55
2023-01-20T08:57:26.710Z,21.17
2023-01-20T08:59:54.283Z,18.90
2023-01-20T09:02:21.022Z,20.10
2023-01-20T09:04:49.692Z,19.58
2023-01-20T09:07:17.235Z,20.17
2023-01-20T09:09:43.864Z,18.73
2023-01-20T09:12:10.539Z,20.50
2023-01-20T09:14:37.012Z,19.98
2023-01-20T09:17:03.580Z,20.63
2023-01-20T09:19:30.205Z,19.33
2023-01-20T09:21:56.987Z,17.98
2023-01-20T09:24:23.596Z,19.55
2023-01-20T09:26:50.528Z,20.70
2023-01-20T09:29:19.507Z,20.92
2023-01-20T09:31:50.052Z,19.30
2023-01-20T09:34:21.674Z,20.15
2023-01-20T09:36:55.393Z,19.30
2023-01-20T09:39:40.486Z,19.70
2023-01-20T09:42:45.855Z,18.90
2023-01-20T09:45:26.040Z,18.48
2023-01-20T09:48:03.933Z,18.13
2023-01-20T09:51:10.543Z,20.17
2023-01-20T09:53:42.800Z,18.83
2023-01-20T09:56:13.586Z,17.35
2023-01-20T09:58:46.979Z,17.60
2023-01-20T10:01:31.991Z,18.98
2023-01-20T10:04:15.064Z,18.40
2023-01-20T10:06:44.507Z,18.85
2023-01-20T10:09:46.195Z,18.23
2023-01-20T10:12:22.218Z,16.52
2023-01-20T10:14:50.732Z,16.45
2023-01-20T10:17:24.488Z,16.80
2023-01-20T10:19:58.987Z,17.02
2023-01-20T10:22:36.927Z,15.27
2023-01-20T10:25:09.758Z,16.85
2023-01-20T10:27:39.476Z,15.02
2023-01-20T10:30:11.122Z,16.58
2023-01-20T10:32:47.639Z,15.23
2023-01-20T10:35:20.016Z,16.23
2023-01-20T10:37:46.576Z,14.48
2023-01-20T10:40:25.482Z,15.25
2023-01-20T10:42:56.818Z,15.05
2023-01-20T10:45:41.852Z,14.98
2023-01-20T10:48:26.800Z,16.48
2023-01-20T10:51:17.827Z,14.30
2023-01-20T10:53:54.003Z,14.02
2023-01-20T10:56:39.042Z,14.23
2023-01-20T10:59:31.916Z,14.80
2023-01-20T11:02:11.908Z,14.50
2023-01-20T11:04:39.114Z,13.68
2023-01-20T11:07:08.613Z,14.38
2023-01-20T11:09:37.605Z,14.70
2023-01-20T11:12:09.960Z,13.25
2023-01-20T11:14:36.561Z,13.25
2023-01-20T11:17:06.592Z,14.32
2023-01-20T11:19:56.672Z,12.00
2023-01-20T11:22:31.760Z,12.25
2023-01-20T11:24:59.463Z,12.13
2023-01-20T11:27:29.723Z,12.02
2023-01-20T11:29:59.353Z,13.87
2023-01-20T11:32:36.956Z,12.25
2023-01-20T11:35:21.298Z,11.98
2023-01-20T11:37:47.834Z,12.55
2023-01-20T11:40:20.171Z,12.02
2023-01-20T11:42:48.662Z,10.93
2023-01-20T11:45:34.418Z,12.15
2023-01-20T11:48:02.749Z,10.32
2023-01-20T11:50:31.909Z,10.02
2023-01-20T11:53:19.388Z,11.05
2023-01-20T11:56:03.413Z,11.32
2023-01-20T11:58:57.555Z,11.25
2023-01-20T12:01:48.932Z,11.48
2023-01-20T12:04:27.215Z,11.02
2023-01-20T12:06:58.374Z,11.48
2023-01-20T12:09:45.652Z,11.65
2023-01-20T12:12:27.560Z,10.60
2023-01-20T12:15:11.242Z,10.85
2023-01-20T12:17:40.591Z,11.57
2023-01-20T12:20:18.955Z,12.00
2023-01-20T12:22:55.414Z,11.35
2023-01-20T12:25:25.914Z,11.77
2023-01-20T12:28:04.535Z,11.52
2023-01-20T12:30:38.415Z,10.23
2023-01-20T12:33:05.519Z,11.77
2023-01-20T12:35:40.052Z,10.70
2023-01-20T12:38:07.767Z,13.00
2023-01-20T12:41:00.969Z,11.75
2023-01-20T12:43:36.250Z,11.27
2023-01-20T12:46:17.905Z,10.60
2023-01-20T12:48:53.887Z,10.15
2023-01-20T12:51:50.477Z,10.57
2023-01-20T12:54:49.215Z,10.18
2023-01-20T12:57:25.915Z,8.93
2023-01-20T13:00:22.148Z,10.30
2023-01-20T13:03:17.455Z,11.73
2023-01-20T13:06:08.270Z,10.65
2023-01-20T13:08:58.226Z,9.90
2023-01-20T13:11:46.059Z,11.50
2023-01-20T13:14:20.663Z,11.18
2023-01-20T13:17:05.382Z,9.88
2023-01-20T13:19:37.732Z,11.80
2023-01-20T13:22:17.918Z,12.65
2023-01-20T13:24:46.818Z,13.60
2023-01-20T13:27:14.481Z,11.77
2023-01-20T13:29:55.120Z,10.50
2023-01-20T13:32:27.555Z,8.93
2023-01-20T13:34:54.280Z,7.25
2023-01-20T13:37:26.653Z,8.63
2023-01-20T13:39:54.799Z,6.32
2023-01-20T13:42:37.406Z,8.10
2023-01-20T13:45:17.344Z,9.27
2023-01-20T13:48:05.517Z,6.60
2023-01-20T13:50:42.972Z,5.22
2023-01-20T13:53:28.148Z,5.80
2023-01-20T13:56:27.959Z,5.57
2023-01-20T13:58:55.736Z,5.78
2023-01-20T14:01:22.260Z,6.20
2023-01-20T14:04:05.890Z,6.15
2023-01-20T14:06:35.458Z,5.53
2023-01-20T14:09:02.631Z,4.95
2023-01-20T14:11:31.195Z,5.43
2023-01-20T14:14:02.649Z,6.25
2023-01-20T14:16:35.834Z,6.70
2023-01-20T14:19:18.739Z,7.55
2023-01-20T14:21:45.654Z,7.40
2023-01-20T14:24:32.985Z,7.90
2023-01-20T14:27:15.027Z,8.70
2023-01-20T14:29:41.535Z,9.07
2023-01-20T14:32:28.564Z,8.98
2023-01-20T14:34:56.273Z,8.90
2023-01-20T14:37:28.209Z,8.18
2023-01-20T14:39:58.390Z,10.45
2023-01-20T14:42:27.466Z,8.97
2023-01-20T14:44:56.306Z,11.23
2023-01-20T14:47:24.732Z,10.77
2023-01-20T14:49:52.810Z,12.55
2023-01-20T14:52:31.396Z,12.10
2023-01-20T14:55:00.197Z,14.13
2023-01-20T14:57:34.158Z,14.60
2023-01-20T15:00:12.640Z,14.43
2023-01-20T15:02:40.733Z,14.90
2023-01-20T15:05:20.734Z,15.70
2023-01-20T15:07:47.407Z,14.27
2023-01-20T15:10:18.060Z,14.40
2023-01-20T15:12:47.932Z,14.27
2023-01-20T15:15:21.718Z,12.35
2023-01-20T15:18:17.475Z,11.43
2023-01-20T15:20:48.782Z,12.25
2023-01-20T15:23:31.866Z,11.45
2023-01-20T15:26:09.555Z,11.65
2023-01-20T15:28:43.455Z,12.32
2023-01-20T15:31:15.085Z,12.95
2023-01-20T15:33:41.999Z,13.00
2023-01-20T15:36:36.919Z,12.77
2023-01-20T15:39:03.495Z,13.35
2023-01-20T15:41:30.001Z,13.80
2023-01-20T15:43:56.530Z,12.13
2023-01-20T15:46:24.770Z,11.75
2023-01-20T15:48:51.314Z,12.55
2023-01-20T15:51:20.132Z,13.15
2023-01-20T15:53:47.660Z,12.13
2023-01-20T15:56:21.740Z,11.40
2023-01-20T15:58:48.886Z,11.00
2023-01-20T16:01:17.706Z,11.65
2023-01-20T16:03:44.445Z,11.70
2023-01-20T16:06:19.332Z,12.18
2023-01-20T16:08:48.183Z,13.48
2023-01-20T16:11:16.801Z,10.43
2023-01-20T16:13:43.716Z,10.65
2023-01-20T16:16:13.608Z,10.82
2023-01-20T16:18:40.820Z,10.48
2023-01-20T16:21:08.217Z,9.85
2023-01-20T16:23:34.725Z,8.85
2023-01-20T16:26:01.379Z,8.75
2023-01-20T16:28:27.950Z,9.18
2023-01-20T16:30:57.411Z,9.68
2023-01-20T16:33:25.564Z,10.85
2023-01-20T16:35:53.906Z,9.85
2023-01-20T16:38:23.303Z,10.10
2023-01-20T16:40:59.149Z,8.80
2023-01-20T16:43:25.700Z,9.48
2023-01-20T16:45:54.362Z,9.57
2023-01-20T16:48:22.513Z,10.68
2023-01-20T16:50:49.713Z,9.80
2023-01-20T16:53:17.286Z,10.18
2023-01-20T16:55:47.759Z,9.82
2023-01-20T16:58:15.062Z,11.02
2023-01-20T17:00:42.284Z,10.63
2023-01-20T17:03:09.034Z,9.52
2023-01-20T17:05:35.554Z,9.93
2023-01-20T17:08:02.374Z,10.13
2023-01-20T17:10:30.419Z,10.60
2023-01-20T17:12:57.371Z,10.52
2023-01-20T17:15:24.816Z,11.20
2023-01-20T17:17:54.516Z,10.40
2023-01-20T17:20:21.591Z,9.32
2023-01-20T17:22:48.228Z,10.40
2023-01-20T17:25:17.913Z,9.93
2023-01-20T17:27:45.062Z,9.82
2023-01-20T17:30:11.764Z,10.43
2023-01-20T17:32:38.401Z,10.85
2023-01-20T17:35:05.333Z,10.48
2023-01-20T17:37:32.079Z,11.20
2023-01-20T17:40:00.299Z,11.52
2023-01-20T17:42:26.894Z,11.63
2023-01-20T17:44:53.429Z,10.38
2023-01-20T17:47:20.537Z,12.05
2023-01-20T17:49:47.160Z,11.20
2023-01-20T17:52:13.661Z,11.38
2023-01-20T17:54:40.129Z,10.48
2023-01-20T17:57:06.660Z,12.50
2023-01-20T17:59:33.216Z,11.23
2023-01-20T18:01:59.831Z,12.63
2023-01-20T18:04:26.438Z,12.10
2023-01-20T18:06:52.928Z,11.85
2023-01-20T18:09:19.461Z,12.60
2023-01-20T18:11:46.007Z,14.02
2023-01-20T18:14:13.054Z,13.57
2023-01-20T18:16:41.706Z,13.02
2023-01-20T18:19:11.394Z,13.27
2023-01-20T18:21:38.425Z,13.38
2023-01-20T18:24:07.317Z,13.98
2023-01-20T18:26:35.267Z,13.35
2023-01-20T18:29:21.156Z,12.18
2023-01-20T18:31:47.892Z,13.32
2023-01-20T18:34:15.683Z,13.52
2023-01-20T18:36:46.912Z,13.07
2023-01-20T18:39:15.968Z,13.40
2023-01-20T18:41:42.581Z,14.07
2023-01-20T18:44:09.693Z,13.40
2023-01-20T18:46:36.648Z,13.30
2023-01-20T18:49:04.482Z,12.48
2023-01-20T18:51:33.496Z,12.55
2023-01-20T18:54:04.726Z,12.35
2023-01-20T18:56:33.225Z,13.82
2023-01-20T18:59:00.450Z,14.23
2023-01-20T19:01:29.714Z,13.80
2023-01-20T19:03:56.768Z,14.35
2023-01-20T19:06:28.448Z,13.02
2023-01-20T19:08:58.895Z,14.95
2023-01-20T19:11:28.693Z,13.75
2023-01-20T19:13:55.504Z,13.73
2023-01-20T19:16:23.988Z,15.25
2023-01-20T19:18:53.222Z,13.93
2023-01-20T19:21:20.670Z,14.57
2023-01-20T19:23:55.792Z,13.88
2023-01-20T19:26:23.945Z,15.65
2023-01-20T19:29:02.476Z,14.18
2023-01-20T19:31:30.879Z,16.42
2023-01-20T19:33:57.723Z,14.15
2023-01-20T19:36:24.847Z,15.20
2023-01-20T19:38:51.672Z,15.30
2023-01-20T19:41:21.088Z,14.65
2023-01-20T19:43:47.690Z,16.42
2023-01-20T19:46:17.396Z,14.35
2023-01-20T19:48:44.594Z,15.38
2023-01-20T19:51:13.551Z,16.75
2023-01-20T19:53:40.793Z,15.63
2023-01-20T19:56:12.958Z,15.63
2023-01-20T19:58:39.973Z,16.25
2023-01-20T20:01:11.367Z,17.20
2023-01-20T20:03:38.065Z,17.25
2023-01-20T20:06:06.588Z,14.45
2023-01-20T20:08:33.563Z,14.73
2023-01-20T20:11:00.107Z,13.07
2023-01-20T20:13:26.634Z,15.07
2023-01-20T20:16:00.871Z,16.25
2023-01-20T20:18:27.800Z,15.57
2023-01-20T20:20:54.333Z,14.80
2023-01-20T20:23:21.159Z,16.15
2023-01-20T20:25:55.824Z,15.77
2023-01-20T20:28:23.773Z,14.38
2023-01-20T20:30:50.932Z,14.55
2023-01-20T20:33:18.555Z,14.60
2023-01-20T20:35:45.216Z,12.75
2023-01-20T20:38:11.721Z,14.70
2023-01-20T20:40:38.274Z,14.18
2023-01-20T20:43:04.806Z,15.30
2023-01-20T20:45:31.434Z,14.77
2023-01-20T20:47:59.030Z,14.52
2023-01-20T20:50:27.203Z,15.07
2023-01-20T20:52:53.910Z,15.38
2023-01-20T20:55:20.560Z,16.90
2023-01-20T20:57:47.142Z,15.90
2023-01-20T21:00:15.964Z,15.38
2023-01-20T21:02:43.842Z,16.00
2023-01-20T21:05:10.443Z,15.15
2023-01-20T21:07:36.922Z,15.52
2023-01-20T21:10:04.959Z,16.52
2023-01-20T21:12:32.659Z,15.02
2023-01-20T21:14:59.193Z,15.35
2023-01-20T21:17:25.732Z,16.60
2023-01-20T21:19:52.558Z,16.35
2023-01-20T21:22:19.838Z,15.95
2023-01-20T21:24:46.353Z,16.65
2023-01-20T21:27:13.298Z,17.20
2023-01-20T21:29:39.836Z,15.15
2023-01-20T21:32:06.446Z,18.65
2023-01-20T21:34:33.012Z,16.85
2023-01-20T21:36:59.817Z,19.27
2023-01-20T21:39:26.389Z,18.27
2023-01-20T21:41:52.858Z,17.75
2023-01-20T21:44:28.222Z,18.17
2023-01-20T21:47:07.945Z,19.77
2023-01-20T21:49:53.366Z,17.70
2023-01-20T21:52:41.007Z,18.85
2023-01-20T21:55:19.193Z,19.52
2023-01-20T21:57:46.905Z,19.23
2023-01-20T22:00:15.277Z,18.85
2023-01-20T22:02:46.759Z,19.17
2023-01-20T22:05:13.503Z,18.02
2023-01-20T22:07:40.036Z,19.95
2023-01-20T22:10:07.708Z,18.95
2023-01-20T22:12:35.543Z,20.38
2023-01-20T22:15:03.373Z,20.55
2023-01-20T22:17:30.463Z,18.33
2023-01-20T22:19:56.974Z,21.08
2023-01-20T22:22:23.523Z,16.00
2023-01-20T22:24:50.159Z,20.65
2023-01-20T22:27:16.914Z,19.92
2023-01-20T22:29:43.448Z,20.45
2023-01-20T22:32:10.021Z,21.58
2023-01-20T22:34:36.510Z,20.88
2023-01-20T22:37:03.041Z,19.67
2023-01-20T22:39:29.597Z,20.67
2023-01-20T22:41:56.238Z,22.17
2023-01-20T22:44:22.818Z,20.15
2023-01-20T22:46:49.373Z,20.73
2023-01-20T22:49:15.959Z,20.73
2023-01-20T22:51:42.558Z,20.63
2023-01-20T22:54:10.608Z,21.55
2023-01-20T22:56:38.844Z,23.50
2023-01-20T22:59:05.480Z,23.13
2023-01-20T23:01:33.599Z,22.45
2023-01-20T23:04:02.166Z,23.35
2023-01-20T23:06:31.651Z,23.00
2023-01-20T23:08:59.302Z,24.50
2023-01-20T23:11:26.037Z,23.77
2023-01-20T23:13:53.019Z,25.27
2023-01-20T23:16:22.342Z,22.48
2023-01-20T23:18:50.316Z,22.30
2023-01-20T23:21:17.061Z,23.55
2023-01-20T23:23:43.737Z,24.42
2023-01-20T23:26:17.425Z,24.85
2023-01-20T23:28:44.712Z,23.30
2023-01-20T23:31:12.929Z,25.95
2023-01-20T23:33:40.837Z,25.08
2023-01-20T23:36:12.985Z,24.10
2023-01-20T23:38:39.747Z,25.90
2023-01-20T23:41:06.328Z,24.33
2023-01-20T23:43:33.180Z,25.77
2023-01-20T23:46:01.608Z,23.95
2023-01-20T23:48:28.967Z,25.48
2023-01-20T23:50:56.445Z,26.48
2023-01-20T23:53:23.117Z,27.48
2023-01-20T23:55:49.665Z,25.88
2023-01-20T23:58:16.206Z,27.30
